Krymsk — A8CE4 — position and weather

sailwx.info

Track history (hours):
 
Tides and Currents Weather Stations Pressure Air Temp Water Temp Dewpoint Dewpoint Depression Visibility Wind Speed Wind Dir Waves Ship Positions

Krymsk

Last reported at 2018-Jan-05 09:36 UTC. Time now 2018-Jan-22 10:32 UTC.
Position N 29°21' W 094°47'.
Warning: this ship's position is 17 days out of date.

Length 250 m; draft 8.5 m.

Type: Ship. MMSI: 636011914.

Date/timePositionNaut miles runAvg speedWind from/ knotsBaromVisibWave heightAir tempDewpointWater temp
2018-Jan-05 09:36N 29°21' W 094°47'112.7
2018-Jan-05 09:30N 29°22' W 094°48'611.7
2018-Jan-05 09:00N 29°27' W 094°51'611.4
2018-Jan-05 08:31N 29°32' W 094°54'611.3
2018-Jan-05 08:01N 29°37' W 094°57'510.3
2018-Jan-05 07:31N 29°42' W 094°60'4 7.0
2018-Jan-05 07:00N 29°44' W 095°03'3 5.1
2018-Jan-05 06:30N 29°45' W 095°06'0 0.0
2018-Jan-03 19:32N 29°45' W 095°06'0 0.2
2018-Jan-03 19:29N 29°45' W 095°06'2 3.2
2018-Jan-03 18:43N 29°44' W 095°03'1 6.0
2018-Jan-03 18:28N 29°44' W 095°02'3 6.5
2018-Jan-03 18:00N 29°41' W 094°59'4 8.6
2018-Jan-03 17:30N 29°37' W 094°58'5 9.8
2018-Jan-03 17:00N 29°33' W 094°55'5 9.3
2018-Jan-03 16:30N 29°29' W 094°52'5 8.8
2018-Jan-03 15:58N 29°25' W 094°50'  
Track history (hours):
 
Tides and Currents Weather Stations Pressure Air Temp Water Temp Dewpoint Dewpoint Depression Visibility Wind Speed Wind Dir Waves Ship Positions

Krymsk

Last reported at 2018-Jan-05 09:36 UTC. Time now 2018-Jan-22 10:32 UTC.
Position N 29°21' W 094°47'.
Warning: this ship's position is 17 days out of date.

Length 250 m; draft 8.5 m.

Type: Ship. MMSI: 636011914.

Date/timePositionNaut miles runAvg speedWind from/ knotsBaromVisibWave heightAir tempDewpointWater temp
2018-Jan-05 09:36N 29°21' W 094°47'112.7
2018-Jan-05 09:30N 29°22' W 094°48'611.7
2018-Jan-05 09:00N 29°27' W 094°51'611.4
2018-Jan-05 08:31N 29°32' W 094°54'611.3
2018-Jan-05 08:01N 29°37' W 094°57'510.3
2018-Jan-05 07:31N 29°42' W 094°60'4 7.0
2018-Jan-05 07:00N 29°44' W 095°03'3 5.1
2018-Jan-05 06:30N 29°45' W 095°06'0 0.0
2018-Jan-03 19:32N 29°45' W 095°06'0 0.2
2018-Jan-03 19:29N 29°45' W 095°06'2 3.2
2018-Jan-03 18:43N 29°44' W 095°03'1 6.0
2018-Jan-03 18:28N 29°44' W 095°02'3 6.5
2018-Jan-03 18:00N 29°41' W 094°59'4 8.6
2018-Jan-03 17:30N 29°37' W 094°58'5 9.8
2018-Jan-03 17:00N 29°33' W 094°55'5 9.3
2018-Jan-03 16:30N 29°29' W 094°52'5 8.8
2018-Jan-03 15:58N 29°25' W 094°50'  

Dump ship's entire track history